Date,TemperatureHighF,TemperatureAvgF,TemperatureLowF,DewpointHighF,DewpointAvgF,DewpointLowF,HumidityHigh,HumidityAvg,HumidityLow,PressureMaxIn,PressureMinIn,WindSpeedMaxMPH,WindSpeedAvgMPH,GustSpeedMaxMPH,PrecipitationSumIn
2013-1-1,50.5,46.6,41.2,50.0,45.2,36.1,98,95,81,29.96,29.78,2,0,0,0.99
2013-1-2,48.2,43.5,40.3,47.7,42.8,39.8,98,97,93,29.96,29.75,4,1,0,0.07
2013-1-3,46.4,39.0,29.1,40.9,36.9,27.3,98,92,79,30.14,29.92,3,1,0,0.00
2013-1-4,50.5,35.2,26.4,31.8,26.5,22.0,98,74,34,30.19,30.09,5,1,0,0.00
2013-1-5,50.0,35.8,23.9,39.1,29.1,22.4,98,79,42,30.20,30.06,2,0,0,0.02
2013-1-6,53.1,42.8,37.2,42.4,38.6,33.7,98,86,65,30.07,29.93,4,1,0,0.01
2013-1-7,55.0,38.0,27.0,35.3,31.2,26.5,98,80,42,30.22,30.05,5,1,0,0.00
2013-1-8,52.9,40.2,26.4,45.4,36.5,25.9,98,88,66,30.26,30.16,3,0,0,0.00
2013-1-9,63.5,53.1,45.7,59.2,51.7,45.2,98,95,83,30.30,30.21,2,0,0,0.00
2013-1-10,64.4,55.7,48.7,59.1,53.8,48.2,98,94,78,30.30,30.14,3,0,0,0.03
2013-1-11,61.0,58.2,55.8,60.4,57.6,55.2,98,98,98,30.13,29.98,4,0,0,1.49
2013-1-12,69.6,61.6,55.6,68.7,60.8,55.0,98,97,90,30.03,29.93,3,0,0,0.01
2013-1-13,65.7,59.5,54.3,64.9,58.9,53.7,98,98,97,29.99,29.89,2,0,0,0.14
2013-1-14,63.3,60.5,55.4,62.7,59.9,54.8,98,98,98,29.96,29.88,2,0,0,1.80
2013-1-15,61.2,57.6,55.4,60.6,57.0,54.8,98,98,98,29.95,29.82,3,0,0,2.96
2013-1-16,58.1,54.8,52.7,57.5,54.2,52.2,98,98,98,29.85,29.77,3,0,0,1.27
2013-1-17,54.7,49.1,34.3,54.1,48.6,33.8,98,98,98,30.05,29.50,8,0,0,2.15
2013-1-18,52.0,37.0,28.8,42.5,33.4,28.3,98,89,42,30.32,30.06,4,1,0,0.00
2013-1-19,53.4,35.4,25.7,40.1,31.8,25.2,98,88,51,30.30,30.04,4,0,0,0.00
2013-1-20,61.0,44.6,29.3,43.3,35.9,28.8,98,74,44,30.02,29.87,4,1,0,0.00
2013-1-21,56.5,41.0,31.6,36.6,29.5,17.7,98,67,43,29.91,29.82,4,2,0,0.00
2013-1-22,43.0,32.4,25.9,18.0,13.2,9.8,56,45,29,30.10,29.87,6,2,0,0.00
2013-1-23,52.0,36.5,28.9,32.4,22.8,10.8,93,59,44,30.15,29.96,6,2,0,0.00
2013-1-24,50.5,40.5,28.9,42.3,25.9,14.7,98,60,29,30.24,29.89,6,2,0,0.00
2013-1-25,35.4,28.7,26.1,34.9,21.5,9.2,98,77,45,30.25,29.92,3,1,0,0.01
2013-1-26,55.2,41.6,32.5,40.0,35.0,30.2,98,79,50,30.12,29.91,4,1,0,0.08
2013-1-27,50.5,38.2,26.6,39.2,32.9,26.1,98,83,62,30.31,30.12,3,1,0,0.00
2013-1-28,52.0,44.5,38.3,50.6,42.9,34.8,98,94,79,30.27,30.12,2,0,0,0.00
2013-1-29,63.0,52.5,42.6,62.4,51.9,42.1,98,98,98,30.12,29.85,2,0,0,0.15
2013-1-30,63.3,56.2,43.0,62.7,55.6,42.5,98,98,98,29.83,29.37,7,2,0,1.60
2013-1-31,47.5,36.7,29.3,41.8,29.9,25.4,98,78,50,29.93,29.51,8,2,0,0.01
2013-2-1,41.7,32.5,23.2,35.5,18.7,7.5,98,59,28,30.17,29.85,7,2,0,0.00
2013-2-2,42.3,29.0,19.4,34.4,23.1,12.1,98,81,30,30.16,29.89,3,0,0,0.02
2013-2-3,49.1,37.9,30.0,40.5,33.5,29.5,98,85,60,29.89,29.77,5,1,0,0.30
2013-2-4,50.9,37.7,27.3,37.2,30.6,25.5,94,77,44,29.97,29.84,3,0,0,0.00
2013-2-5,60.8,44.0,33.6,49.0,40.6,32.1,98,89,62,29.87,29.76,4,1,0,0.00
2013-2-6,67.5,48.5,37.4,42.5,36.8,29.7,98,71,26,30.01,29.86,3,1,0,0.00
2013-2-7,47.3,42.9,36.1,46.8,41.5,32.6,98,95,84,30.04,29.79,3,0,0,0.25
2013-2-8,55.0,46.3,33.6,52.4,44.2,32.8,98,93,71,29.98,29.75,4,1,0,0.00
2013-2-9,63.1,42.3,27.1,38.1,31.4,26.6,98,71,26,30.14,29.97,5,1,0,0.00
2013-2-10,55.9,43.8,34.9,46.9,38.3,32.1,98,83,42,30.20,30.00,4,1,0,1.10
2013-3-17,76.5,65.9,54.1,55.7,52.2,49.4,85,63,45,29.81,29.71,4,1,0,2.73
2013-3-18,54.5,48.4,44.8,53.9,47.4,44.3,98,96,87,29.87,29.69,2,0,0,0.49
2013-3-19,59.4,49.6,36.7,54.6,44.0,29.9,98,83,48,29.93,29.71,5,2,0,0.00
2013-3-20,66.2,45.7,33.6,35.8,14.8,-42.4,88,43,1,29.95,29.69,4,2,0,0.00
2013-3-21,51.1,36.5,26.1,33.9,15.8,0.3,87,46,12,29.78,29.68,4,2,0,0.00
2013-3-22,51.6,39.7,28.2,34.4,24.5,16.2,71,56,34,29.87,29.77,4,0,0,0.00
2013-3-23,54.9,45.9,39.7,51.7,43.4,33.9,98,92,70,29.86,29.67,3,0,0,0.42
2013-3-24,51.3,46.6,41.0,49.9,45.9,37.7,98,97,88,29.69,29.35,4,1,0,1.77
2013-3-25,43.0,36.5,31.3,36.6,27.6,24.0,86,70,54,29.81,29.44,7,3,0,0.00
2013-3-26,46.0,35.5,30.4,31.1,26.6,24.0,82,70,55,30.05,29.77,4,2,0,0.00
2013-3-27,60.8,40.8,25.3,30.3,25.4,21.6,93,59,22,30.11,30.03,4,1,0,0.00
2013-3-28,67.1,43.5,27.5,31.4,26.0,0.2,86,57,8,30.15,30.03,5,1,0,0.00
2013-3-29,65.5,44.4,28.8,42.4,31.4,24.6,88,64,28,30.19,30.00,4,1,0,0.00
2013-3-30,73.0,55.0,43.0,55.2,44.9,40.3,98,73,38,30.02,29.82,4,1,0,0.18
2013-3-31,66.7,57.5,52.9,60.7,55.8,52.4,98,95,69,29.84,29.66,3,1,0,1.12
2013-4-1,70.0,57.2,45.3,56.2,48.0,42.0,98,75,45,29.83,29.65,5,1,0,0.00
2013-4-2,67.8,53.3,41.7,41.9,20.4,-40.4,92,44,1,29.98,29.82,5,2,0,0.00
2013-4-3,61.9,52.9,44.6,36.1,31.7,25.8,69,46,31,30.04,29.89,5,1,0,0.00
2013-4-4,51.4,41.7,37.4,44.0,39.5,33.4,98,93,50,30.01,29.76,4,1,0,0.46
2013-4-5,68.0,51.2,38.8,53.7,43.4,33.5,98,79,28,29.89,29.72,4,1,0,0.00
2013-4-6,73.4,53.9,35.2,46.8,38.6,34.4,98,63,26,30.03,29.90,5,1,0,0.00
2013-4-7,73.9,55.8,37.9,51.9,45.1,36.8,96,70,41,30.05,29.91,3,1,0,0.00
2013-4-8,77.5,62.2,49.3,58.3,52.5,47.6,96,74,45,29.99,29.87,4,1,0,0.00
2013-4-9,84.0,65.2,48.7,62.9,55.4,48.2,98,75,41,30.02,29.91,5,1,0,0.00
2013-4-10,88.7,66.6,50.7,64.1,57.1,50.2,98,76,36,29.95,29.76,4,1,0,0.00
2013-4-11,78.3,65.6,55.6,69.9,61.1,55.0,98,87,57,29.81,29.51,4,1,0,1.32
2013-4-12,75.9,62.1,48.9,61.8,53.6,42.5,98,78,33,29.73,29.47,4,1,0,0.60
2013-4-13,82.6,63.7,48.2,47.3,33.6,-30.4,85,44,1,29.85,29.70,4,2,0,0.00
2013-4-14,65.5,53.6,42.8,56.6,46.7,37.3,98,79,47,29.92,29.80,3,0,0,0.20
2013-4-15,75.9,61.7,52.9,62.6,57.2,52.4,98,87,60,30.01,29.78,4,1,0,0.07
2013-4-16,81.1,66.8,57.9,65.7,61.8,57.3,98,86,58,30.13,30.00,3,1,0,0.00
2013-4-17,82.2,67.2,59.2,74.8,64.1,58.6,98,91,59,30.08,29.91,4,0,0,0.27
2013-4-18,78.8,67.4,59.9,66.7,62.5,59.3,98,86,59,29.95,29.77,5,1,0,0.00
2013-4-19,66.7,59.9,45.1,65.8,57.9,38.4,98,93,76,29.80,29.59,4,2,0,0.80
2013-4-20,69.3,51.8,36.9,38.7,34.2,28.7,83,54,27,30.09,29.80,5,2,0,0.00
2013-4-21,68.5,52.3,35.2,43.4,37.6,33.3,98,63,33,30.23,30.10,6,1,0,0.00
2013-4-22,70.9,55.9,42.3,46.9,42.6,39.2,93,64,34,30.21,30.00,5,1,0,0.00
2013-4-23,74.1,55.6,37.2,51.9,43.8,35.9,96,69,38,30.10,29.93,4,1,0,0.00
2013-4-24,73.2,58.7,48.2,63.4,55.8,47.7,98,91,63,29.98,29.90,3,0,0,0.04
2013-4-25,77.5,58.0,43.2,53.4,41.0,-33.9,98,64,1,30.14,29.94,4,1,0,0.00
2013-4-26,73.6,55.9,38.1,54.0,41.7,33.7,95,62,34,30.26,30.11,4,1,0,0.00
2013-4-27,57.2,53.4,51.3,56.1,52.8,50.8,98,98,88,30.21,30.06,2,0,0,0.95
2013-4-28,55.2,53.1,50.5,54.6,52.5,50.0,98,98,98,30.08,29.89,3,0,0,4.26
2013-4-29,73.9,60.4,53.1,63.7,56.7,52.5,98,89,58,29.91,29.76,4,1,0,0.02
2013-4-30,78.4,61.4,46.4,64.5,55.5,45.9,98,84,51,29.97,29.82,4,0,0,0.00
2013-5-1,71.6,63.3,58.3,59.8,57.9,56.0,98,84,62,30.07,29.97,4,1,0,0.00
2013-5-2,65.1,60.7,58.3,60.0,58.0,55.9,96,91,82,30.08,30.00,4,1,0,0.00
2013-5-3,62.6,57.6,55.4,57.9,56.1,54.2,98,95,75,30.01,29.87,4,1,0,0.01
2013-5-4,57.0,52.4,49.5,55.5,51.2,47.7,98,96,84,29.87,29.74,3,1,0,1.27
2013-5-5,54.7,52.1,49.5,54.1,51.6,49.0,98,98,98,29.75,29.63,3,1,0,2.12
2013-5-6,54.0,49.5,43.9,53.4,48.9,43.4,98,98,94,29.78,29.64,2,0,0,0.10
2013-5-7,66.7,55.2,45.9,60.9,52.6,45.4,98,91,66,29.81,29.72,3,0,0,0.04
2013-5-8,71.6,59.5,48.2,62.4,55.2,47.7,98,87,62,29.91,29.79,3,0,0,0.00
2013-5-9,82.4,63.9,50.4,64.6,57.1,49.9,98,82,42,29.97,29.87,3,1,0,0.00
2013-5-10,77.0,63.7,52.5,66.6,60.3,52.0,98,90,64,29.94,29.80,3,0,0,0.04
2013-5-11,74.7,62.7,56.5,67.3,61.1,55.9,98,95,70,29.84,29.69,3,1,0,0.19
2013-5-12,70.3,57.4,43.9,59.3,46.2,34.7,98,72,32,29.93,29.73,4,2,0,0.00
2013-5-13,70.9,52.0,36.7,44.1,37.2,30.6,98,64,24,30.05,29.92,3,1,0,0.00
2013-5-14,80.2,57.1,37.2,58.6,47.8,36.7,98,76,43,30.12,29.94,4,1,0,0.00
2013-5-15,90.7,67.3,52.5,61.1,56.1,52.0,98,74,27,29.98,29.82,6,1,0,0.00
2013-5-16,84.0,67.0,56.8,67.4,61.6,56.2,98,85,50,29.92,29.82,3,1,0,0.00
2013-5-17,78.4,65.8,56.5,69.1,62.1,55.9,98,89,58,29.96,29.87,2,0,0,0.07
2013-5-18,68.2,64.3,61.3,67.6,63.7,60.7,98,98,98,29.96,29.88,2,0,0,0.34
2013-5-19,67.8,65.3,61.7,67.2,64.7,61.1,98,98,98,29.95,29.83,2,0,0,0.71
2013-5-20,83.7,66.4,57.0,76.0,65.2,56.4,98,96,74,29.96,29.86,2,0,0,0.20
2013-5-21,86.0,71.9,64.0,78.8,69.7,63.4,98,93,70,29.89,29.74,3,1,0,0.13
2013-5-22,83.1,70.4,63.0,76.4,68.2,62.4,98,93,71,29.84,29.68,2,0,0,0.18
2013-5-23,82.9,69.3,63.1,68.2,62.7,57.4,98,82,52,29.79,29.71,3,1,0,0.65
2013-5-24,78.6,64.7,52.5,59.7,52.0,40.2,94,67,29,30.04,29.78,4,1,0,0.00
2013-5-25,84.6,58.7,42.6,56.2,45.3,35.0,98,68,17,30.15,29.99,3,1,0,2.16
2013-5-26,79.5,69.9,57.7,66.6,59.3,50.1,92,71,44,30.11,29.97,3,1,0,0.00
2013-5-27,83.8,65.6,50.7,68.6,59.8,50.2,98,84,49,30.09,29.95,3,0,0,1.34
2013-5-28,85.5,70.3,59.9,68.5,64.2,59.3,98,83,53,30.06,29.96,4,0,0,0.00
2013-5-29,84.0,69.2,57.9,70.2,64.3,57.3,98,86,58,30.07,29.98,3,0,0,0.00
2013-5-30,82.2,69.5,60.8,69.8,65.3,60.2,98,88,62,30.11,29.98,2,0,0,0.00
2013-5-31,84.0,70.8,63.3,71.2,66.8,62.7,98,89,62,30.07,29.93,3,0,0,0.00
2013-6-1,83.1,70.9,64.0,72.7,68.3,63.4,98,92,66,29.97,29.84,2,0,0,0.06
2013-6-2,74.1,69.2,65.3,73.5,68.6,64.7,98,98,98,29.86,29.72,2,0,0,1.33
2013-6-3,84.7,70.3,62.6,72.9,67.0,62.0,98,91,60,29.80,29.69,2,0,0,0.00
2013-6-4,84.0,69.6,57.6,73.1,65.8,57.0,98,89,54,29.87,29.78,2,0,0,0.00
2013-6-5,81.7,71.2,64.0,74.8,69.2,63.4,98,94,75,29.90,29.75,2,0,0,0.83
2013-6-6,72.3,66.5,63.3,71.7,65.9,62.7,98,98,98,29.78,29.62,2,0,0,0.06
2013-6-7,80.1,69.1,64.0,74.8,67.8,63.4,98,96,79,29.67,29.51,3,0,0,0.44
2013-6-8,77.4,67.7,58.8,75.9,66.8,58.2,98,97,89,29.94,29.67,2,0,0,0.00
2013-6-9,82.4,69.5,63.0,76.6,68.0,62.4,98,95,76,29.97,29.85,3,0,0,2.61
2013-6-10,75.6,69.4,64.9,74.7,68.7,64.3,98,98,93,29.86,29.76,2,0,0,0.33
2013-6-11,87.3,74.0,67.1,77.1,71.2,66.5,98,92,66,29.87,29.79,3,1,0,0.15
2013-6-12,91.9,75.6,65.7,80.2,72.9,65.1,98,92,65,29.89,29.79,3,0,0,0.00
2013-6-13,92.7,75.7,66.7,78.6,71.2,66.1,98,88,57,29.80,29.56,4,1,0,0.54
2013-6-14,84.4,69.2,58.6,71.7,65.4,58.0,98,89,58,29.86,29.65,3,0,0,0.01
2013-6-15,82.9,67.9,55.9,71.3,63.5,55.3,98,88,56,29.99,29.87,3,0,0,0.00
2013-6-16,84.6,70.1,58.1,74.6,66.9,57.5,98,91,65,30.01,29.85,3,0,0,0.14
2013-6-17,80.2,71.9,67.1,77.5,71.0,66.5,98,97,87,29.91,29.78,2,0,0,0.74
2013-6-18,78.1,71.5,68.2,76.6,70.5,67.6,98,97,82,29.79,29.65,2,0,0,0.06
2013-6-19,81.3,71.2,65.8,74.3,69.3,65.2,98,94,76,29.94,29.72,2,0,0,0.10
2013-6-20,80.2,69.1,61.2,73.5,67.7,60.6,98,95,80,30.05,29.93,3,0,0,0.00
2013-6-21,83.7,69.7,61.5,73.2,66.8,60.9,98,91,61,30.10,29.99,2,0,0,0.00
2013-6-22,85.8,69.7,60.1,71.6,65.3,59.5,98,87,56,30.09,29.94,2,0,0,0.00
2013-6-23,84.4,70.6,59.4,75.7,68.0,58.8,98,92,70,30.06,29.94,2,0,0,0.00
2013-6-24,86.0,75.2,68.7,76.8,72.3,68.1,98,91,70,30.06,29.93,4,0,0,0.00
2013-6-25,78.8,70.2,63.9,76.8,69.4,63.3,98,97,86,30.01,29.87,2,0,0,0.69
2013-6-26,80.8,71.0,64.4,80.2,70.4,63.8,98,98,96,29.91,29.77,3,0,0,0.14
2013-6-27,82.9,73.3,68.4,80.6,72.6,67.8,98,98,87,29.81,29.63,2,0,0,0.29
2013-6-28,90.7,73.9,66.0,79.0,70.7,65.4,98,91,56,29.68,29.48,2,0,0,0.39
2013-6-29,84.4,71.5,64.0,74.2,68.1,63.4,98,90,52,29.56,29.49,2,0,0,0.00
2013-6-30,82.9,69.8,59.2,74.7,67.0,58.6,98,92,66,29.65,29.54,3,0,0,0.00
2013-7-1,82.2,70.4,65.7,74.8,68.8,65.1,98,95,76,29.77,29.63,2,0,0,0.16
2013-7-2,77.7,70.3,65.5,75.9,69.5,64.9,98,97,87,29.94,29.77,3,0,0,0.87
2013-7-3,72.9,68.5,65.1,72.3,67.9,64.5,98,98,98,30.02,29.91,2,0,0,2.20
2013-7-4,73.2,68.3,64.9,72.6,67.7,64.3,98,98,98,30.03,29.94,1,0,0,2.10
2013-7-5,74.1,70.7,68.5,73.5,70.1,67.9,98,98,98,30.06,29.98,2,0,0,0.96
2013-7-6,76.3,70.6,67.3,75.7,70.0,66.7,98,98,98,30.04,29.91,2,0,0,2.20
2013-7-7,76.5,71.5,68.5,75.9,70.9,67.9,98,98,98,30.01,29.92,2,0,0,0.02
2013-7-8,80.4,72.0,66.9,78.8,71.3,66.3,98,98,88,30.02,29.93,2,0,0,0.27
2013-7-9,87.8,74.5,70.2,80.9,73.2,69.6,98,96,75,30.01,29.90,2,0,0,0.13
2013-7-10,86.4,74.0,69.3,80.7,72.8,68.7,98,96,76,29.96,29.79,2,0,0,0.13
2013-7-11,77.2,71.0,68.5,76.6,70.4,67.9,98,98,98,29.82,29.71,0,0,0,0.01
2013-7-12,82.9,75.8,66.2,78.6,73.8,65.6,98,94,81,29.79,29.70,3,1,0,0.15
2013-7-13,67.3,66.6,65.7,66.7,66.0,65.1,98,98,98,29.90,29.79,1,0,0,0.01
2013-7-14,74.3,71.9,70.2,73.7,71.3,69.6,98,98,98,30.08,29.99,2,0,0,0.30
2013-7-15,81.1,72.4,68.0,78.1,71.5,67.4,98,97,88,30.16,30.06,3,0,0,0.18
2013-7-16,86.7,78.1,70.3,79.1,75.2,69.7,98,91,71,30.16,30.07,2,1,0,0.00
2013-7-17,87.4,71.9,65.7,81.5,70.5,65.1,98,96,72,30.12,29.96,3,0,0,0.40
2013-7-18,84.0,77.8,69.8,80.4,75.9,69.2,98,94,80,29.98,29.90,3,0,0,0.00
2013-7-19,85.3,74.8,66.7,81.0,73.0,66.1,98,94,82,29.97,29.84,2,0,0,0.00
2013-7-20,80.4,71.1,66.9,79.8,70.4,66.3,98,98,84,29.89,29.78,2,0,0,0.09
2013-7-21,79.3,71.7,67.6,78.7,71.1,67.0,98,98,92,29.87,29.76,3,0,0,0.73
2013-7-22,80.1,76.5,73.2,78.2,75.7,72.6,98,97,94,29.82,29.70,4,1,0,0.21
2013-7-23,80.8,76.6,67.3,78.7,75.3,66.7,98,96,92,29.77,29.65,2,1,0,0.00
2013-7-24,82.8,79.1,74.7,77.5,76.1,74.1,98,91,84,29.69,29.65,3,1,0,0.01
2013-7-25,82.0,76.1,66.2,76.0,72.6,65.6,98,89,78,29.79,29.75,2,1,0,0.00
2013-7-26,79.0,74.0,68.9,76.1,72.5,68.3,98,95,90,29.92,29.87,2,1,0,0.35
2013-7-27,76.1,76.1,76.1,75.2,75.2,75.2,97,97,97,29.75,29.75,1,1,0,0.00
2013-7-28,73.2,72.5,71.8,72.6,71.9,71.2,98,98,98,29.82,29.80,1,1,0,0.00
2013-7-29,82.0,79.0,76.6,74.1,66.6,62.6,92,67,52,29.94,29.92,2,1,0,0.00
2013-8-1,86.4,81.8,73.9,77.7,75.4,72.6,98,82,70,29.81,29.72,2,1,0,0.00
2013-8-2,82.2,75.2,69.8,77.6,73.9,69.2,98,96,83,29.87,29.81,3,0,0,0.00
2013-8-3,83.5,72.5,64.0,74.5,69.3,63.4,98,91,68,29.89,29.82,3,0,0,0.00
2013-8-4,85.8,74.8,66.4,77.4,71.6,65.8,98,90,71,29.87,29.79,2,1,0,0.00
2013-8-5,83.8,71.2,63.1,76.8,69.5,62.5,98,95,74,29.91,29.81,3,0,0,0.00
2013-8-6,81.7,74.6,68.9,78.6,73.0,68.3,98,95,78,29.86,29.79,2,0,0,0.03
2013-8-7,74.5,72.0,70.3,73.9,71.4,69.7,98,98,98,29.89,29.83,1,0,0,2.59
2013-8-8,77.0,72.5,69.8,76.4,71.9,69.2,98,98,98,29.91,29.84,3,0,0,0.10
2013-8-9,81.0,73.4,68.7,80.4,72.8,68.1,98,98,96,29.94,29.86,2,0,0,0.19
2013-8-10,81.3,72.7,67.8,80.2,72.1,67.2,98,98,95,30.00,29.89,5,0,0,2.25
2013-8-11,77.4,72.1,70.3,76.8,71.5,69.7,98,98,98,30.01,29.93,2,0,0,0.52
2013-8-12,78.3,72.7,66.9,77.7,72.1,66.3,98,98,98,29.97,29.84,2,0,0,0.11
2013-8-13,82.4,74.6,70.2,78.9,73.1,69.6,98,95,83,29.81,29.70,2,0,0,0.04
2013-8-14,78.4,75.0,70.0,75.3,73.3,69.4,98,95,86,29.89,29.77,2,0,0,0.00
2013-8-15,71.4,67.2,61.3,68.5,65.0,60.7,98,93,81,29.95,29.87,3,0,0,0.00
2013-8-16,69.8,65.3,61.2,67.6,64.3,60.6,98,97,89,29.98,29.90,2,0,0,0.01
2013-8-17,65.1,64.1,63.0,64.5,63.5,62.4,98,98,98,30.00,29.93,0,0,0,1.07
2013-8-18,69.8,65.7,63.1,69.2,65.1,62.5,98,98,98,30.07,29.96,2,0,0,0.68
2013-8-19,71.8,68.1,65.3,71.2,67.5,64.7,98,98,98,30.03,29.93,2,0,0,1.56
2013-8-20,75.2,70.8,66.7,74.6,70.2,66.1,98,98,98,30.04,29.96,2,0,0,0.00
2013-8-21,70.9,68.7,68.4,70.3,68.1,67.8,98,98,98,30.10,29.99,2,0,0,1.64
2013-8-22,77.9,74.6,68.5,77.3,74.0,67.9,98,98,98,30.01,29.96,3,1,0,0.13
2013-8-23,82.8,76.9,64.6,78.8,75.0,64.0,98,94,84,29.94,29.81,2,0,0,0.01
2013-8-24,78.3,69.5,63.3,74.7,68.3,62.7,98,96,86,30.14,29.90,3,0,0,0.00
2013-8-25,77.4,66.7,57.2,71.1,64.8,56.6,98,94,77,30.24,30.11,2,0,0,0.00
2013-8-26,78.8,66.7,57.2,73.2,65.0,56.6,98,95,76,30.17,29.99,2,0,0,0.00
2013-8-27,80.4,68.8,59.0,76.8,67.5,58.4,98,96,82,30.02,29.87,2,0,0,0.00
2013-8-28,83.8,72.8,64.9,79.4,71.5,64.3,98,96,83,29.90,29.81,2,0,0,0.00
2013-8-29,88.0,76.3,70.3,80.7,74.5,69.7,98,95,76,29.84,29.75,3,1,0,0.00
2013-8-30,83.3,74.9,69.1,79.1,73.8,68.5,98,96,85,29.90,29.78,3,0,0,0.00
2013-8-31,83.5,74.7,70.0,80.0,73.7,69.4,98,97,86,29.82,29.72,2,0,0,0.00
2013-9-1,84.0,74.1,67.1,80.0,72.6,66.5,98,95,82,29.77,29.67,0,0,0,0.00
2013-9-2,80.2,72.7,66.2,76.5,71.3,65.6,98,96,87,29.79,29.69,0,0,0,0.00
2013-9-3,85.3,73.2,67.1,75.8,70.5,66.5,99,92,67,29.82,29.69,2,0,0,0.02
2013-9-4,80.6,70.7,62.8,76.5,69.0,62.2,98,95,80,29.94,29.81,2,0,0,0.00
2013-9-5,82.6,70.7,62.6,75.9,68.8,62.0,98,94,71,29.97,29.89,3,0,0,0.00
2013-9-6,80.2,69.2,61.7,73.6,67.2,61.1,98,94,74,30.02,29.89,3,0,0,0.00
2013-9-7,80.8,69.0,60.3,75.3,67.3,59.7,98,95,76,29.99,29.83,0,0,0,0.00
2013-9-8,83.7,71.1,62.8,75.5,68.8,62.2,98,93,71,29.85,29.76,0,0,0,0.00
2013-9-9,83.5,71.1,63.1,76.5,69.0,62.5,98,94,73,29.97,29.84,2,0,0,0.00
2013-9-10,82.9,71.3,63.0,76.5,69.3,62.4,98,94,76,30.07,29.96,2,0,0,0.00
2013-9-11,82.6,70.8,62.6,76.5,69.0,62.0,98,94,73,30.08,29.93,2,0,0,0.00
2013-9-12,82.2,71.6,65.1,77.4,70.0,64.5,98,95,78,29.94,29.73,3,0,0,0.00
2013-9-13,80.2,70.1,59.2,69.9,65.6,58.3,98,87,58,29.73,29.64,3,0,0,0.00
2013-9-14,73.8,61.0,51.1,66.1,58.4,50.6,98,92,70,29.94,29.72,2,0,0,0.00
2013-9-15,76.6,64.6,54.9,71.7,63.0,54.3,98,95,81,30.03,29.93,2,0,0,0.00
2013-9-16,82.4,68.9,61.3,70.3,64.9,60.7,98,88,53,29.99,29.90,2,0,0,0.00
2013-9-17,71.6,65.6,62.1,65.1,62.8,61.4,98,91,73,30.12,29.97,3,0,0,0.00
2013-9-18,70.9,64.4,59.2,67.4,62.8,58.6,98,95,80,30.10,29.99,2,0,0,0.00
2013-9-19,78.6,65.6,55.2,73.6,64.1,54.6,98,95,81,30.04,29.92,2,0,0,0.00
2013-9-20,79.7,68.0,59.0,73.1,65.9,58.4,98,94,72,29.94,29.76,3,0,0,0.00
2013-9-21,67.6,64.9,61.3,67.0,64.3,60.7,98,98,98,29.78,29.51,2,0,0,1.51
2013-9-22,74.1,61.9,53.8,70.2,60.7,53.2,98,96,81,29.74,29.58,2,0,0,0.01
2013-9-23,73.6,61.8,55.6,67.8,60.0,55.0,98,94,77,29.89,29.74,3,0,0,0.00
2013-9-24,68.0,62.4,55.0,66.8,61.7,54.4,98,98,94,29.90,29.77,2,0,0,0.00
2013-9-25,63.9,62.6,60.8,63.3,62.0,60.2,98,98,98,29.76,29.69,0,0,0,1.29
2013-9-26,72.7,63.7,57.0,70.9,63.1,56.4,98,98,92,29.87,29.72,2,0,0,0.00
2013-9-27,73.0,61.7,51.3,69.1,60.3,50.8,98,95,83,30.00,29.87,2,0,0,0.00
2013-9-28,69.8,61.0,52.3,65.3,59.6,51.8,98,95,79,30.09,29.96,2,0,0,0.00
2013-9-29,68.2,59.0,50.2,64.6,57.8,49.7,98,96,81,30.02,29.86,2,0,0,0.00
2013-9-30,71.4,60.3,52.3,66.7,58.9,51.8,98,95,74,29.95,29.84,2,0,0,0.00
2013-10-1,73.6,61.0,51.4,69.8,59.9,50.9,98,96,84,30.03,29.90,2,0,0,0.00
2013-10-2,75.2,63.2,54.0,71.0,61.8,53.4,98,95,78,30.03,29.92,2,0,0,0.00
2013-10-3,77.0,65.8,58.8,71.4,64.1,58.2,98,95,77,30.00,29.91,2,0,0,0.00
2013-10-4,78.1,65.0,55.8,73.2,63.7,55.2,98,96,83,30.02,29.92,2,0,0,0.00
2013-10-5,78.6,66.1,57.7,73.1,64.6,57.1,98,95,78,29.99,29.86,2,0,0,0.00
2013-10-6,76.5,66.5,59.2,72.0,65.2,58.6,98,96,82,29.89,29.71,3,0,0,1.07
2013-10-7,69.3,63.1,57.9,65.7,61.9,57.3,98,96,88,29.80,29.65,2,1,0,0.34
2013-10-8,69.8,60.9,56.8,63.5,58.6,56.2,98,93,74,30.00,29.79,3,0,0,0.00
2013-10-9,68.4,58.0,48.2,62.4,55.8,47.7,98,93,72,30.05,29.94,3,0,0,0.00
2013-10-10,74.1,59.3,47.8,63.1,55.7,47.3,98,89,66,29.98,29.85,4,1,0,0.00
2013-10-11,75.4,61.3,50.9,65.7,58.1,50.4,98,90,65,29.89,29.79,2,0,0,0.00
2013-10-12,75.6,61.7,51.8,68.3,59.1,51.3,98,92,72,29.95,29.83,3,0,0,0.00
2013-10-13,73.9,62.5,53.1,69.6,61.0,52.5,98,95,80,30.03,29.94,2,0,0,0.00
2013-10-14,71.8,64.5,58.6,68.4,63.4,58.0,98,96,86,30.05,29.96,2,0,0,0.00
2013-10-15,65.1,61.5,56.8,63.6,60.8,56.2,98,98,93,30.00,29.89,2,0,0,0.06
2013-10-16,69.1,60.5,54.1,66.7,59.6,53.5,98,97,89,29.92,29.80,1,0,0,0.00
2013-10-17,66.6,62.4,58.1,66.0,61.8,57.5,98,98,98,29.82,29.71,2,0,0,0.31
2013-10-18,65.5,57.2,48.2,63.4,56.3,47.7,98,97,89,29.86,29.75,2,0,0,0.00
2013-10-19,61.7,55.3,50.9,59.7,54.4,50.4,98,97,86,29.81,29.73,3,0,0,0.00
2013-10-20,63.5,50.1,39.7,53.2,47.0,39.2,98,90,55,29.92,29.79,3,0,0,0.00
2013-10-21,65.7,51.0,40.3,61.5,49.7,39.8,98,96,81,29.99,29.86,4,0,0,0.00
2013-10-22,67.3,57.0,50.5,62.7,55.5,50.0,98,95,77,29.89,29.67,2,0,0,0.00
2013-10-23,54.7,50.0,40.6,51.5,44.4,36.6,98,82,60,29.88,29.63,5,1,0,0.00
2013-10-24,59.4,44.8,33.3,48.9,40.6,32.8,98,87,61,30.03,29.88,3,0,0,0.00
2013-10-25,55.4,43.0,31.8,41.9,33.8,27.7,98,74,36,30.18,30.03,3,1,0,0.00
2013-10-26,56.5,39.9,27.9,46.3,36.3,27.4,98,88,57,30.16,29.93,2,0,0,0.00
2013-10-27,64.6,52.1,41.2,59.2,50.0,40.1,98,93,78,29.98,29.88,3,0,0,0.00
2013-10-28,60.6,54.8,51.3,60.0,54.2,50.8,98,98,98,30.12,29.96,2,0,0,0.27
2013-10-29,66.9,54.1,43.9,64.6,53.2,43.4,98,97,87,30.20,30.10,2,0,0,0.00
2013-10-30,73.4,59.4,51.1,67.4,57.7,50.6,98,95,76,30.16,30.01,3,0,0,0.00
2013-10-31,66.7,59.9,55.0,66.1,59.3,54.4,98,98,98,30.04,29.73,2,0,0,0.05
2013-11-1,68.2,61.1,49.8,65.7,59.2,49.3,98,94,58,29.71,29.51,4,1,0,0.63
2013-11-2,61.3,51.8,44.4,54.0,47.7,42.2,98,87,62,29.86,29.62,4,1,0,0.00
2013-11-3,60.4,45.8,36.7,48.5,42.0,36.2,98,88,57,30.16,29.86,2,0,0,0.00
2013-11-4,57.4,44.2,34.3,44.8,39.7,33.8,98,86,58,30.33,30.18,5,0,0,0.00
2013-11-5,61.2,45.8,36.1,45.5,40.4,35.6,98,84,46,30.34,30.22,3,0,0,0.00
2013-11-6,65.5,55.0,43.9,61.5,53.7,43.4,98,96,85,30.23,29.99,2,0,0,0.00
2013-11-7,61.0,52.6,37.8,60.4,50.4,37.3,98,93,75,30.01,29.87,4,1,0,0.04
2013-11-8,60.6,47.2,34.7,39.0,31.8,20.4,98,61,22,30.15,30.01,3,1,0,0.00
2013-11-9,57.0,42.4,30.2,44.1,36.8,29.7,98,83,47,30.20,30.06,3,0,0,0.00
2013-11-10,72.3,53.8,40.6,48.1,40.8,36.7,94,64,33,30.10,30.01,3,1,0,0.00
2013-11-11,61.9,46.3,34.0,44.2,37.5,32.2,95,74,40,30.18,30.02,2,0,0,0.00
2013-11-12,61.5,43.3,27.3,47.7,34.8,20.1,98,73,54,30.27,29.94,6,1,0,0.00
2013-11-13,52.3,33.6,21.0,28.8,20.5,12.2,87,63,24,30.37,30.25,2,0,0,0.00
2013-11-14,58.6,36.8,22.6,31.3,23.3,-22.4,93,65,3,30.30,30.15,2,0,0,0.00
2013-11-15,48.0,41.2,29.7,47.5,39.0,25.0,98,92,80,30.17,30.02,2,0,0,0.43
2013-11-16,55.8,52.3,48.0,55.2,51.7,47.5,98,98,98,30.09,30.01,2,0,0,0.04
2013-11-17,58.8,56.5,54.0,58.2,55.9,53.4,98,98,98,30.04,29.77,2,0,0,1.33
2013-11-18,68.0,57.8,48.9,58.8,49.1,38.6,98,76,40,29.86,29.73,4,2,0,0.02
2013-11-19,59.7,46.1,37.2,43.8,36.8,32.3,96,72,39,30.04,29.84,3,1,0,0.00
2013-11-20,54.9,44.2,34.7,37.9,35.0,32.5,95,72,47,30.22,30.05,4,1,0,0.00
2013-11-21,50.5,48.5,46.6,50.0,46.3,37.3,98,92,70,30.27,30.18,2,0,0,0.09
2013-11-22,58.8,54.2,50.2,58.2,53.7,49.7,98,98,98,30.22,30.00,2,0,0,0.07
2013-11-23,56.3,48.6,35.1,55.7,46.9,32.0,98,94,72,30.04,29.95,4,2,0,0.01
2013-11-24,48.7,34.7,26.8,32.3,23.5,18.5,87,66,33,30.30,30.03,4,1,0,0.00
2013-11-25,43.5,33.8,24.8,33.2,20.2,11.6,98,61,29,30.32,30.10,3,0,0,0.11
2013-11-26,47.8,42.2,33.3,47.3,41.7,32.8,98,98,98,30.08,29.43,3,1,0,4.71
2013-11-27,43.3,34.9,24.8,42.8,32.1,21.8,98,90,76,29.95,29.40,6,2,0,0.03
2013-11-28,49.5,37.6,26.6,31.1,27.7,25.1,96,71,44,30.28,30.12,3,0,0,0.00
2013-11-29,60.4,38.0,24.6,39.4,30.9,24.1,98,80,38,30.35,30.22,4,0,0,0.00
2013-11-30,50.9,39.7,27.1,34.2,30.8,26.6,98,73,47,30.40,30.18,4,1,0,0.00
2013-12-1,58.6,43.3,32.2,45.9,38.0,29.8,98,83,57,30.18,29.84,2,0,0,0.00
2013-12-2,52.7,45.3,36.9,52.2,44.8,36.2,98,98,97,29.85,29.66,3,0,0,0.05
2013-12-3,51.6,50.7,47.7,51.1,50.2,47.2,98,98,98,29.79,29.70,1,0,0,0.09
2013-12-4,56.8,53.9,50.4,56.2,53.4,49.9,98,98,98,29.91,29.78,2,0,0,0.20
2013-12-5,65.5,60.8,56.1,64.9,60.2,55.5,98,98,98,29.95,29.85,3,0,0,1.45
2013-12-6,69.3,65.2,56.7,68.7,64.6,56.1,98,98,98,29.90,29.79,5,1,0,0.88
2013-12-7,64.2,53.9,45.1,62.2,53.0,44.6,98,97,84,30.15,29.85,4,1,0,0.03
2013-12-8,49.1,42.0,39.4,48.6,41.5,38.9,98,98,98,30.17,30.06,4,1,0,0.64
2013-12-9,49.6,43.9,38.7,49.1,43.4,38.2,98,98,98,30.07,29.86,2,0,0,1.85
2013-12-10,49.8,42.4,28.4,49.3,40.1,27.2,98,92,73,30.15,29.77,5,2,0,0.26
2013-12-11,51.1,33.9,22.6,38.7,28.6,22.1,98,83,49,30.27,30.14,3,1,0,0.00
2013-12-12,49.1,36.1,27.3,30.0,24.8,18.5,85,65,38,30.24,30.13,5,2,0,0.00
2013-12-13,52.3,35.7,22.8,35.1,26.9,20.5,94,73,35,30.20,30.05,3,0,0,0.00
2013-12-14,46.9,42.8,37.2,46.4,41.6,33.3,98,96,85,30.05,29.65,3,0,0,1.18
2013-12-15,46.8,38.0,30.7,46.3,36.4,29.7,98,94,84,29.98,29.63,6,2,0,0.00
2013-12-16,56.7,38.6,27.9,39.9,32.9,27.4,98,83,48,30.03,29.95,4,1,0,0.00
2013-12-17,50.4,46.5,32.0,40.5,39.1,31.5,98,76,67,30.02,29.89,3,2,0,0.00
2013-12-18,39.0,33.7,30.0,24.8,23.7,22.9,75,67,56,30.14,30.10,2,0,0,0.00
2013-12-19,63.5,39.8,26.2,37.7,27.7,21.7,93,67,21,30.17,30.04,4,0,0,0.00
2013-12-20,58.6,44.6,31.1,50.9,41.2,29.8,98,89,66,30.09,29.99,3,0,0,0.00
2013-12-21,61.5,53.9,50.2,60.9,53.4,49.7,98,98,97,30.00,29.83,2,0,0,0.35
2013-12-22,64.2,59.0,55.6,63.6,58.4,55.0,98,98,98,29.92,29.77,4,1,0,4.09
2013-12-23,55.4,47.7,36.7,54.8,46.9,35.7,98,97,90,30.04,29.86,4,1,0,0.01
2013-12-24,41.0,33.1,25.2,35.1,28.3,22.4,98,83,63,30.20,30.02,4,2,0,0.00
2013-12-25,41.0,32.5,19.4,27.1,23.3,18.9,98,72,44,30.32,30.17,4,1,0,0.00
2013-12-26,55.6,35.7,23.0,36.5,28.7,22.5,98,79,43,30.17,30.08,3,1,0,0.00
2013-12-27,52.0,36.9,26.1,35.3,29.5,25.1,97,77,43,30.27,30.16,3,0,0,0.00
2013-12-28,40.8,34.3,26.2,40.3,33.6,25.7,98,97,88,30.23,29.83,3,0,0,0.63
2013-12-29,52.7,44.5,39.2,50.3,43.4,38.7,98,96,84,29.84,29.64,6,1,0,0.36
2013-12-30,50.5,44.5,40.3,44.9,41.9,38.4,98,91,79,30.01,29.81,4,1,0,0.00
2013-12-31,49.3,38.3,29.7,37.9,31.1,26.4,92,77,48,30.19,29.99,4,1,0,0.00
2014-1-1,48.9,36.3,27.7,37.9,31.8,26.5,97,85,59,30.20,29.99,3,0,0,0.00
2014-1-2,48.2,38.0,21.2,47.7,36.8,17.9,98,95,82,29.97,29.55,5,1,0,0.16